createdAt,value
2022-11-01T00:01:12.646Z,68.45
2022-11-01T00:03:39.878Z,55.50
2022-11-01T00:06:07.395Z,70.78
2022-11-01T00:08:34.622Z,71.05
2022-11-01T00:11:08.953Z,64.50
2022-11-01T00:13:36.342Z,62.35
2022-11-01T00:16:03.589Z,61.13
2022-11-01T00:18:30.934Z,57.40
2022-11-01T00:20:58.221Z,63.35
2022-11-01T00:23:25.474Z,59.88
2022-11-01T00:25:53.573Z,63.15
2022-11-01T00:28:20.937Z,60.22
2022-11-01T00:30:48.283Z,64.00
2022-11-01T00:33:15.557Z,65.55
2022-11-01T00:35:42.990Z,67.22
2022-11-01T00:38:10.210Z,64.15
2022-11-01T00:40:37.475Z,66.25
2022-11-01T00:43:04.748Z,64.30
2022-11-01T00:45:32.071Z,65.90
2022-11-01T00:47:59.720Z,67.13
2022-11-01T00:50:27.453Z,68.05
2022-11-01T00:52:54.722Z,66.80
2022-11-01T00:55:21.956Z,62.85
2022-11-01T00:57:49.283Z,62.75
2022-11-01T01:00:16.924Z,64.50
2022-11-01T01:02:44.187Z,64.82
2022-11-01T01:05:11.515Z,56.00
2022-11-01T01:07:38.843Z,63.40
2022-11-01T01:10:07.180Z,72.70
2022-11-01T01:12:34.462Z,66.45
2022-11-01T01:15:01.898Z,55.63
2022-11-01T01:17:32.791Z,53.35
2022-11-01T01:20:01.268Z,59.85
2022-11-01T01:22:29.322Z,57.75
2022-11-01T01:24:56.607Z,61.92
2022-11-01T01:27:23.860Z,60.35
2022-11-01T01:29:52.114Z,59.40
2022-11-01T01:32:20.999Z,62.08
2022-11-01T01:34:48.435Z,58.58
2022-11-01T01:37:15.751Z,54.03
2022-11-01T01:39:43.083Z,54.55
2022-11-01T01:42:25.455Z,57.08
2022-11-01T01:44:52.795Z,55.30
2022-11-01T01:47:25.082Z,58.20
2022-11-01T01:49:56.449Z,61.78
2022-11-01T01:52:24.427Z,52.20
2022-11-01T01:54:51.945Z,57.65
2022-11-01T01:57:20.286Z,60.47
2022-11-01T01:59:47.750Z,52.53
2022-11-01T02:02:15.348Z,59.65
2022-11-01T02:04:45.437Z,58.78
2022-11-01T02:07:12.848Z,56.53
2022-11-01T02:09:40.260Z,57.65
2022-11-01T02:12:07.647Z,48.17
2022-11-01T02:14:35.024Z,57.92
2022-11-01T02:17:07.005Z,53.40
2022-11-01T02:19:36.798Z,65.70
2022-11-01T02:22:25.873Z,48.75
2022-11-01T02:25:02.061Z,47.40
2022-11-01T02:27:49.505Z,47.72
2022-11-01T02:30:18.726Z,49.88
2022-11-01T02:33:05.192Z,49.92
2022-11-01T02:35:44.897Z,43.65
2022-11-01T02:38:14.992Z,46.35
2022-11-01T02:40:50.955Z,48.53
2022-11-01T02:43:20.513Z,45.22
2022-11-01T02:45:50.350Z,49.92
2022-11-01T02:48:21.527Z,43.60
2022-11-01T02:50:56.856Z,41.83
2022-11-01T02:53:24.227Z,41.45
2022-11-01T02:55:54.465Z,41.17
2022-11-01T02:58:26.155Z,36.17
2022-11-01T03:00:53.577Z,41.00
2022-11-01T03:03:25.727Z,44.45
2022-11-01T03:05:56.020Z,42.42
2022-11-01T03:08:24.719Z,33.58
2022-11-01T03:11:04.990Z,37.25
2022-11-01T03:13:35.255Z,38.05
2022-11-01T03:16:13.131Z,35.45
2022-11-01T03:18:44.265Z,33.15
2022-11-01T03:21:16.174Z,34.42
2022-11-01T03:23:55.645Z,38.40
2022-11-01T03:26:26.563Z,34.38
2022-11-01T03:28:58.736Z,36.45
2022-11-01T03:31:31.150Z,33.72
2022-11-01T03:34:00.083Z,34.80
2022-11-01T03:36:31.237Z,36.17
2022-11-01T03:39:00.676Z,32.60
2022-11-01T03:41:28.526Z,31.00
2022-11-01T03:43:56.261Z,31.80
2022-11-01T03:46:23.587Z,32.65
2022-11-01T03:48:50.875Z,33.17
2022-11-01T03:51:18.495Z,33.40
2022-11-01T03:53:45.755Z,31.83
2022-11-01T03:56:13.074Z,32.33
2022-11-01T03:58:46.369Z,30.05
2022-11-01T04:01:14.993Z,26.13
2022-11-01T04:03:42.747Z,29.02
2022-11-01T04:06:10.483Z,28.67
2022-11-01T04:08:38.150Z,22.38
2022-11-01T04:11:05.684Z,24.67
2022-11-01T04:13:33.128Z,34.25
2022-11-01T04:16:19.196Z,27.83
2022-11-01T04:19:05.364Z,23.60
2022-11-01T04:21:33.038Z,25.30
2022-11-01T04:24:00.324Z,30.42
2022-11-01T04:26:27.734Z,20.48
2022-11-01T04:28:58.131Z,26.73
2022-11-01T04:31:26.721Z,23.30
2022-11-01T04:33:54.079Z,21.35
2022-11-01T04:36:21.394Z,21.83
2022-11-01T04:38:52.714Z,20.92
2022-11-01T04:41:22.505Z,24.55
2022-11-01T04:43:50.495Z,24.35
2022-11-01T04:46:17.755Z,27.52
2022-11-01T04:48:44.966Z,16.55
2022-11-01T04:51:12.389Z,21.80
2022-11-01T04:53:39.878Z,20.48
2022-11-01T04:56:09.114Z,19.88
2022-11-01T04:58:41.453Z,22.73
2022-11-01T05:01:12.611Z,18.83
2022-11-01T05:03:39.898Z,24.67
2022-11-01T05:06:07.267Z,17.83
2022-11-01T05:08:34.532Z,17.70
2022-11-01T05:11:02.015Z,14.55
2022-11-01T05:13:29.258Z,14.38
2022-11-01T05:18:43.918Z,18.38
2022-11-01T05:21:11.263Z,18.58
2022-11-01T05:23:38.519Z,17.83
2022-11-01T05:26:05.876Z,17.52
2022-11-01T05:28:33.175Z,16.15
2022-11-01T05:31:00.409Z,20.25
2022-11-01T05:33:27.670Z,18.83
2022-11-01T05:35:54.918Z,17.98
2022-11-01T05:38:22.174Z,18.15
2022-11-01T05:40:50.567Z,16.15
2022-11-01T05:43:17.815Z,16.67
2022-11-01T05:45:45.084Z,15.60
2022-11-01T05:48:12.347Z,18.67
2022-11-01T05:50:39.562Z,17.50
2022-11-01T05:53:10.515Z,17.92
2022-11-01T05:55:38.990Z,14.88
2022-11-01T05:58:09.771Z,20.42
2022-11-01T06:00:37.089Z,14.60
2022-11-01T06:03:04.768Z,18.33
2022-11-01T06:05:32.586Z,13.65
2022-11-01T06:08:01.575Z,12.50
2022-11-01T06:10:28.928Z,12.80
2022-11-01T06:12:56.462Z,17.35
2022-11-01T06:15:23.963Z,17.88
2022-11-01T06:18:00.845Z,14.93
2022-11-01T06:20:29.682Z,14.50
2022-11-01T06:22:57.266Z,14.98
2022-11-01T06:25:24.763Z,14.85
2022-11-01T06:27:52.045Z,19.92
2022-11-01T06:30:19.251Z,22.08
2022-11-01T06:32:46.536Z,17.52
2022-11-01T06:35:13.767Z,24.00
2022-11-01T06:37:41.021Z,16.00
2022-11-01T06:40:08.473Z,16.58
2022-11-01T06:42:35.721Z,11.68
2022-11-01T06:45:02.977Z,12.05
2022-11-01T06:47:30.238Z,16.48
2022-11-01T06:49:57.633Z,9.73
2022-11-01T06:52:24.943Z,14.45
2022-11-01T06:54:55.023Z,13.70
2022-11-01T06:57:22.291Z,10.80
2022-11-01T06:59:49.506Z,10.68
2022-11-01T07:02:19.571Z,14.77
2022-11-01T07:04:47.957Z,8.23
2022-11-01T07:07:15.226Z,7.80
2022-11-01T07:09:42.483Z,7.97
2022-11-01T07:12:09.784Z,7.20
2022-11-01T07:14:37.136Z,8.20
2022-11-01T07:17:04.680Z,5.53
2022-11-01T07:19:31.970Z,5.28
2022-11-01T07:21:59.203Z,5.55
2022-11-01T07:24:26.446Z,5.65
2022-11-01T07:26:53.736Z,5.78
2022-11-01T07:29:21.018Z,3.50
2022-11-01T07:31:48.353Z,4.18
2022-11-01T07:34:16.048Z,4.88
2022-11-01T07:36:43.291Z,5.60
2022-11-01T07:39:10.562Z,3.95
2022-11-01T07:41:37.835Z,9.70
2022-11-01T07:44:05.219Z,7.20
2022-11-01T07:46:32.566Z,7.32
2022-11-01T07:49:00.531Z,14.48
2022-11-01T07:51:28.291Z,14.55
2022-11-01T07:53:55.622Z,7.93
2022-11-01T07:56:22.912Z,9.73
2022-11-01T07:58:50.181Z,4.10
2022-11-01T08:01:17.448Z,7.05
2022-11-01T08:03:44.799Z,14.80
2022-11-01T08:06:12.130Z,9.23
2022-11-01T08:08:39.687Z,5.50
2022-11-01T08:11:06.988Z,8.40
2022-11-01T08:13:34.372Z,16.25
2022-11-01T08:16:04.842Z,5.50
2022-11-01T08:18:32.194Z,13.02
2022-11-01T08:20:59.993Z,8.52
2022-11-01T08:23:27.363Z,6.70
2022-11-01T08:25:54.638Z,10.50
2022-11-01T08:28:24.520Z,14.80
2022-11-01T08:30:51.894Z,6.03
2022-11-01T08:33:19.133Z,10.13
2022-11-01T08:35:50.385Z,8.13
2022-11-01T08:38:18.186Z,9.70
2022-11-01T08:40:45.459Z,3.85
2022-11-01T08:43:12.682Z,5.85
2022-11-01T08:45:40.452Z,5.88
2022-11-01T08:48:08.017Z,7.63
2022-11-01T08:50:35.682Z,8.35
2022-11-01T08:53:06.609Z,5.07
2022-11-01T08:55:37.583Z,4.65
2022-11-01T09:00:35.951Z,11.85
2022-11-01T09:03:03.293Z,13.43
2022-11-01T09:05:31.581Z,12.57
2022-11-01T09:08:00.746Z,13.02
2022-11-01T09:10:30.846Z,12.50
2022-11-01T09:12:59.183Z,8.85
2022-11-01T09:15:27.122Z,11.27
2022-11-01T09:17:54.438Z,13.93
2022-11-01T09:20:21.702Z,11.10
2022-11-01T09:22:51.959Z,16.50
2022-11-01T09:25:19.279Z,12.82
2022-11-01T09:27:46.535Z,11.05
2022-11-01T09:30:13.789Z,13.32
2022-11-01T09:32:41.031Z,11.82
2022-11-01T09:35:09.113Z,14.02
2022-11-01T09:37:36.395Z,12.80
2022-11-01T09:40:03.750Z,15.00
2022-11-01T09:42:42.707Z,23.23
2022-11-01T09:45:20.724Z,21.83
2022-11-01T09:47:51.060Z,16.45
2022-11-01T09:50:24.118Z,19.73
2022-11-01T09:52:52.422Z,18.35
2022-11-01T09:55:25.776Z,22.25
2022-11-01T09:58:02.920Z,20.98
2022-11-01T10:00:35.019Z,15.30
2022-11-01T10:03:15.854Z,23.60
2022-11-01T10:05:52.342Z,17.03
2022-11-01T10:08:19.821Z,16.23
2022-11-01T10:11:05.567Z,20.13
2022-11-01T10:13:50.543Z,21.65
2022-11-01T10:16:23.698Z,23.35
2022-11-01T10:19:11.536Z,19.10
2022-11-01T10:21:43.491Z,25.85
2022-11-01T10:24:22.636Z,59.78
2022-11-01T10:26:51.970Z,27.08
2022-11-01T10:29:35.815Z,17.02
2022-11-01T10:32:03.377Z,12.13
2022-11-01T10:34:36.281Z,20.15
2022-11-01T10:37:22.596Z,22.95
2022-11-01T10:40:11.792Z,15.35
2022-11-01T10:42:39.261Z,19.85
2022-11-01T10:45:08.972Z,20.77
2022-11-01T10:47:36.361Z,15.75
2022-11-01T10:50:07.778Z,22.17
2022-11-01T10:52:53.839Z,18.40
2022-11-01T10:55:40.515Z,18.50
2022-11-01T10:58:31.070Z,22.90
2022-11-01T11:00:58.544Z,23.02
2022-11-01T11:03:26.931Z,18.58
2022-11-01T11:05:55.162Z,26.98
2022-11-01T11:08:23.619Z,18.50
2022-11-01T11:10:51.013Z,21.15
2022-11-01T11:13:21.286Z,21.17
2022-11-01T11:16:08.810Z,16.40
2022-11-01T11:18:42.200Z,22.27
2022-11-01T11:21:11.786Z,24.52
2022-11-01T11:23:43.279Z,22.20
2022-11-01T11:26:13.433Z,27.40
2022-11-01T11:28:44.339Z,21.92
2022-11-01T11:31:32.592Z,14.32
2022-11-01T11:33:59.839Z,16.73
2022-11-01T11:36:37.528Z,21.08
2022-11-01T11:39:05.391Z,23.52
2022-11-01T11:41:35.319Z,18.88
2022-11-01T11:44:02.584Z,19.75
2022-11-01T11:46:30.116Z,21.10
2022-11-01T11:49:04.592Z,26.67
2022-11-01T11:51:33.806Z,86.22
2022-11-01T11:54:13.281Z,49.25
2022-11-01T11:56:40.583Z,13.70
2022-11-01T11:59:12.201Z,19.88
2022-11-01T12:04:15.672Z,19.10
2022-11-01T12:06:44.780Z,17.27
2022-11-01T12:09:32.261Z,19.77
2022-11-01T12:12:06.332Z,16.00
2022-11-01T12:14:35.321Z,18.85
2022-11-01T12:17:03.049Z,20.80
2022-11-01T12:19:31.671Z,26.17
2022-11-01T12:22:01.227Z,23.92
2022-11-01T12:24:31.485Z,23.75
2022-11-01T12:27:01.867Z,16.02
2022-11-01T12:29:39.942Z,17.15
2022-11-01T12:32:14.582Z,14.18
2022-11-01T12:34:43.018Z,19.42
2022-11-01T12:37:20.130Z,15.10
2022-11-01T12:39:50.444Z,30.15
2022-11-01T12:42:27.655Z,16.35
2022-11-01T12:45:02.283Z,22.02
2022-11-01T12:47:36.741Z,13.15
2022-11-01T12:50:15.069Z,26.02
2022-11-01T12:52:45.073Z,21.30
2022-11-01T12:55:21.270Z,22.17
2022-11-01T12:57:49.080Z,20.45
2022-11-01T13:00:17.137Z,24.60
2022-11-01T13:02:47.220Z,23.45
2022-11-01T13:05:20.932Z,14.57
2022-11-01T13:07:50.948Z,19.65
2022-11-01T13:10:18.196Z,12.10
2022-11-01T13:12:51.585Z,18.75
2022-11-01T13:15:37.363Z,22.52
2022-11-01T13:18:23.224Z,13.65
2022-11-01T13:20:57.869Z,22.55
2022-11-01T13:23:35.722Z,13.57
2022-11-01T13:26:18.286Z,15.82
2022-11-01T13:28:51.479Z,16.52
2022-11-01T13:31:30.325Z,23.00
2022-11-01T13:34:09.629Z,15.63
2022-11-01T13:36:36.840Z,20.20
2022-11-01T13:39:22.817Z,15.02
2022-11-01T13:41:55.150Z,18.35
2022-11-01T13:44:24.462Z,14.57
2022-11-01T13:47:10.531Z,10.40
2022-11-01T13:49:46.061Z,12.85
2022-11-01T13:52:19.369Z,20.38
2022-11-01T13:54:46.593Z,12.82
2022-11-01T13:57:17.946Z,12.70
2022-11-01T13:59:54.148Z,18.13
2022-11-01T14:02:24.670Z,13.82
2022-11-01T14:05:01.773Z,12.90
2022-11-01T14:07:34.457Z,11.48
2022-11-01T14:10:01.792Z,12.32
2022-11-01T14:12:43.395Z,13.50
2022-11-01T14:15:13.866Z,11.52
2022-11-01T14:17:50.537Z,12.20
2022-11-01T14:20:17.783Z,10.98
2022-11-01T14:22:45.303Z,15.30
2022-11-01T14:25:12.761Z,16.55
2022-11-01T14:27:40.640Z,16.85
2022-11-01T14:30:21.350Z,17.48
2022-11-01T14:32:59.280Z,22.08
2022-11-01T14:35:36.911Z,13.45
2022-11-01T14:38:07.736Z,11.60
2022-11-01T14:40:38.127Z,12.05
2022-11-01T14:43:12.098Z,14.75
2022-11-01T14:45:44.638Z,15.05
2022-11-01T14:48:24.555Z,14.43
2022-11-01T14:51:10.666Z,13.05
2022-11-01T14:53:38.118Z,14.20
2022-11-01T14:56:14.003Z,6.43
2022-11-01T14:58:41.265Z,16.10
2022-11-01T15:01:11.673Z,13.00
2022-11-01T15:03:39.087Z,16.05
2022-11-01T15:06:15.793Z,13.45
2022-11-01T15:08:43.118Z,8.70
2022-11-01T15:11:10.371Z,16.48
2022-11-01T15:13:41.688Z,10.50
2022-11-01T15:16:23.213Z,12.70
2022-11-01T15:19:02.380Z,12.13
2022-11-01T15:21:31.393Z,12.35
2022-11-01T15:23:59.441Z,14.05
2022-11-01T15:26:28.693Z,9.65
2022-11-01T15:28:58.147Z,17.20
2022-11-01T15:31:25.581Z,16.17
2022-11-01T15:34:00.531Z,17.75
2022-11-01T15:36:33.596Z,15.15
2022-11-01T15:39:02.738Z,8.70
2022-11-01T15:41:34.230Z,14.57
2022-11-01T15:44:02.892Z,11.45
2022-11-01T15:46:34.136Z,10.23
2022-11-01T15:49:05.576Z,14.27
2022-11-01T15:51:34.095Z,14.80
2022-11-01T15:54:05.148Z,10.68
2022-11-01T15:56:42.350Z,11.48
2022-11-01T15:59:19.451Z,14.50
2022-11-01T16:01:47.488Z,13.05
2022-11-01T16:04:16.372Z,12.27
2022-11-01T16:06:43.827Z,10.65
2022-11-01T16:09:17.243Z,16.67
2022-11-01T16:11:45.272Z,16.42
2022-11-01T16:14:24.056Z,10.60
2022-11-01T16:17:05.672Z,13.90
2022-11-01T16:19:45.585Z,15.23
2022-11-01T16:22:42.010Z,15.10
2022-11-01T16:25:11.985Z,11.32
2022-11-01T16:27:55.847Z,12.52
2022-11-01T16:30:52.688Z,12.20
2022-11-01T16:33:25.220Z,13.65
2022-11-01T16:35:53.805Z,16.90
2022-11-01T16:38:38.499Z,13.80
2022-11-01T16:41:07.575Z,11.38
2022-11-01T16:43:35.979Z,11.98
2022-11-01T16:46:05.678Z,11.55
2022-11-01T16:48:34.755Z,12.32
2022-11-01T16:51:02.761Z,10.52
2022-11-01T16:53:33.252Z,15.35
2022-11-01T16:56:16.827Z,13.63
2022-11-01T16:58:50.959Z,10.52
2022-11-01T17:01:23.302Z,14.30
2022-11-01T17:03:50.977Z,8.98
2022-11-01T17:06:18.354Z,10.50
2022-11-01T17:08:45.652Z,6.72
2022-11-01T17:11:13.647Z,10.90
2022-11-01T17:13:41.589Z,12.05
2022-11-01T17:16:16.212Z,12.27
2022-11-01T17:18:43.790Z,9.93
2022-11-01T17:21:11.819Z,10.02
2022-11-01T17:23:39.224Z,12.15
2022-11-01T17:26:08.904Z,12.07
2022-11-01T17:28:36.213Z,11.50
2022-11-01T17:31:03.516Z,9.18
2022-11-01T17:33:30.776Z,7.85
2022-11-01T17:35:59.032Z,12.48
2022-11-01T17:38:34.727Z,11.70
2022-11-01T17:41:04.003Z,9.50
2022-11-01T17:43:31.625Z,10.45
2022-11-01T17:46:00.119Z,12.00
2022-11-01T17:48:27.380Z,20.90
2022-11-01T17:50:59.692Z,10.70
2022-11-01T17:53:26.956Z,7.20
2022-11-01T17:55:57.665Z,10.90
2022-11-01T17:58:24.922Z,11.13
2022-11-01T18:00:52.318Z,9.90
2022-11-01T18:03:19.562Z,9.80
2022-11-01T18:05:46.810Z,11.38
2022-11-01T18:08:21.135Z,12.00
2022-11-01T18:10:54.257Z,17.40
2022-11-01T18:13:24.500Z,14.90
2022-11-01T18:15:55.344Z,9.98
2022-11-01T18:18:28.754Z,13.02
2022-11-01T18:21:14.942Z,9.98
2022-11-01T18:23:43.816Z,14.20
2022-11-01T18:26:12.544Z,6.10
2022-11-01T18:28:39.836Z,9.65
2022-11-01T18:31:23.656Z,9.25
2022-11-01T18:33:59.331Z,10.23
2022-11-01T18:36:57.431Z,16.02
2022-11-01T18:39:30.949Z,12.52
2022-11-01T18:42:03.381Z,6.60
2022-11-01T18:44:30.996Z,9.77
2022-11-01T18:47:03.760Z,11.05
2022-11-01T18:49:31.567Z,14.48
2022-11-01T18:52:01.916Z,10.82
2022-11-01T18:54:33.134Z,7.05
2022-11-01T18:57:12.006Z,13.00
2022-11-01T18:59:39.713Z,7.53
2022-11-01T19:02:13.033Z,14.93
2022-11-01T19:04:42.717Z,17.48
2022-11-01T19:07:12.025Z,8.98
2022-11-01T19:09:42.507Z,10.13
2022-11-01T19:12:16.021Z,8.57
2022-11-01T19:14:43.577Z,13.88
2022-11-01T19:17:16.293Z,11.52
2022-11-01T19:19:43.946Z,7.93
2022-11-01T19:22:26.457Z,6.78
2022-11-01T19:24:53.682Z,8.30
2022-11-01T19:27:22.212Z,11.00
2022-11-01T19:29:54.037Z,10.20
2022-11-01T19:32:25.736Z,12.32
2022-11-01T19:34:53.699Z,9.13
2022-11-01T19:37:24.739Z,8.60
2022-11-01T19:39:52.249Z,8.95
2022-11-01T19:42:26.474Z,11.60
2022-11-01T19:45:04.735Z,13.00
2022-11-01T19:47:39.745Z,9.25
2022-11-01T19:50:33.168Z,10.00
2022-11-01T19:53:00.449Z,10.57
2022-11-01T19:55:46.580Z,12.43
2022-11-01T19:58:22.578Z,14.85
2022-11-01T20:00:50.523Z,8.13
2022-11-01T20:03:47.187Z,6.40
2022-11-01T20:06:17.516Z,7.57
2022-11-01T20:08:47.647Z,5.80
2022-11-01T20:11:14.880Z,6.68
2022-11-01T20:13:42.426Z,5.40
2022-11-01T20:16:09.686Z,8.10
2022-11-01T20:18:36.947Z,13.30
2022-11-01T20:21:06.434Z,7.82
2022-11-01T20:23:39.057Z,9.02
2022-11-01T20:26:06.443Z,17.13
2022-11-01T20:28:33.840Z,14.52
2022-11-01T20:31:01.097Z,12.00
2022-11-01T20:33:28.363Z,10.10
2022-11-01T20:35:55.658Z,11.35
2022-11-01T20:38:25.305Z,9.40
2022-11-01T20:40:52.601Z,17.00
2022-11-01T20:43:19.883Z,7.65
2022-11-01T20:45:47.563Z,12.35
2022-11-01T20:48:14.800Z,12.57
2022-11-01T20:50:42.150Z,8.10
2022-11-01T20:53:10.049Z,8.75
2022-11-01T20:55:37.306Z,18.30
2022-11-01T20:58:04.826Z,13.00
2022-11-01T21:00:32.294Z,15.15
2022-11-01T21:03:00.978Z,15.18
2022-11-01T21:05:29.195Z,9.45
2022-11-01T21:08:01.716Z,7.38
2022-11-01T21:10:31.065Z,9.23
2022-11-01T21:13:00.375Z,8.80
2022-11-01T21:15:27.751Z,8.88
2022-11-01T21:17:57.780Z,10.05
2022-11-01T21:20:25.460Z,10.95
2022-11-01T21:22:55.860Z,11.77
2022-11-01T21:25:23.523Z,11.80
2022-11-01T21:27:50.802Z,9.73
2022-11-01T21:30:20.042Z,8.02
2022-11-01T21:32:47.647Z,12.57
2022-11-01T21:35:20.976Z,10.60
2022-11-01T21:37:53.153Z,12.43
2022-11-01T21:40:30.172Z,10.95
2022-11-01T21:42:58.071Z,7.20
2022-11-01T21:45:25.409Z,19.30
2022-11-01T21:47:52.720Z,15.90
2022-11-01T21:50:19.999Z,13.68
2022-11-01T21:52:47.271Z,14.82
2022-11-01T21:55:14.573Z,13.13
2022-11-01T21:57:42.179Z,15.15
2022-11-01T22:00:10.175Z,10.38
2022-11-01T22:02:37.528Z,9.82
2022-11-01T22:05:05.051Z,13.43
2022-11-01T22:07:32.299Z,10.63
2022-11-01T22:09:59.519Z,17.40
2022-11-01T22:12:26.832Z,11.00
2022-11-01T22:14:54.122Z,15.45
2022-11-01T22:17:21.404Z,13.43
2022-11-01T22:19:48.978Z,12.57
2022-11-01T22:22:16.204Z,14.40
2022-11-01T22:24:43.495Z,9.15
2022-11-01T22:27:10.767Z,13.00
2022-11-01T22:29:38.019Z,12.20
2022-11-01T22:32:05.382Z,13.35
2022-11-01T22:34:32.628Z,12.95
2022-11-01T22:37:00.794Z,16.75
2022-11-01T22:39:28.446Z,14.57
2022-11-01T22:41:55.765Z,10.98
2022-11-01T22:44:27.369Z,8.98
2022-11-01T22:49:33.710Z,10.40
2022-11-01T22:52:03.906Z,11.43
2022-11-01T22:54:31.153Z,11.98
2022-11-01T22:57:12.770Z,8.25
2022-11-01T22:59:45.978Z,8.88
2022-11-01T23:02:27.198Z,12.88
2022-11-01T23:05:02.056Z,9.77
2022-11-01T23:07:33.280Z,10.73
2022-11-01T23:10:05.824Z,10.73
2022-11-01T23:12:52.499Z,12.52
2022-11-01T23:15:30.940Z,14.57
2022-11-01T23:18:02.423Z,15.38
2022-11-01T23:20:29.979Z,11.15
2022-11-01T23:22:57.217Z,13.90
2022-11-01T23:25:26.083Z,13.38
2022-11-01T23:27:54.956Z,13.82
2022-11-01T23:30:22.544Z,12.75
2022-11-01T23:32:49.788Z,9.57
2022-11-01T23:35:19.423Z,16.13
2022-11-01T23:37:47.191Z,12.20
2022-11-01T23:43:22.311Z,13.52
2022-11-01T23:45:49.947Z,11.52
2022-11-01T23:48:17.360Z,10.77
2022-11-01T23:50:45.100Z,10.95
2022-11-01T23:53:14.863Z,9.85
2022-11-01T23:55:45.032Z,13.48
2022-11-01T23:58:14.229Z,9.55
